sensor_id;sensor_type;location;lat;lon;timestamp;pressure;altitude;pressure_sealevel;temperature;humidity
75008;BME280;63554;48.940;12.050;2022-11-04T00:01:50;96277.97;;;8.54;90.41
75008;BME280;63554;48.940;12.050;2022-11-04T00:03:53;96277.63;;;8.50;90.54
75008;BME280;63554;48.940;12.050;2022-11-04T00:05:59;96277.03;;;8.48;90.23
75008;BME280;63554;48.940;12.050;2022-11-04T00:08:02;96278.09;;;8.47;90.25
75008;BME280;63554;48.940;12.050;2022-11-04T00:10:22;96283.97;;;8.56;90.04
75008;BME280;63554;48.940;12.050;2022-11-04T00:12:44;96280.91;;;8.52;90.19
75008;BME280;63554;48.940;12.050;2022-11-04T00:14:48;96276.31;;;8.52;89.94
75008;BME280;63554;48.940;12.050;2022-11-04T00:16:50;96279.97;;;8.58;89.91
75008;BME280;63554;48.940;12.050;2022-11-04T00:19:11;96280.31;;;8.62;89.68
75008;BME280;63554;48.940;12.050;2022-11-04T00:21:13;96282.19;;;8.61;89.72
75008;BME280;63554;48.940;12.050;2022-11-04T00:23:33;96276.00;;;8.61;89.71
75008;BME280;63554;48.940;12.050;2022-11-04T00:25:54;96276.31;;;8.64;89.44
75008;BME280;63554;48.940;12.050;2022-11-04T00:28:15;96282.66;;;8.70;89.31
75008;BME280;63554;48.940;12.050;2022-11-04T00:30:37;96277.75;;;8.67;89.47
75008;BME280;63554;48.940;12.050;2022-11-04T00:32:39;96295.56;;;8.68;89.53
75008;BME280;63554;48.940;12.050;2022-11-04T00:35:00;96288.53;;;8.67;89.27
75008;BME280;63554;48.940;12.050;2022-11-04T00:37:02;96281.72;;;8.64;89.65
75008;BME280;63554;48.940;12.050;2022-11-04T00:39:05;96291.09;;;8.62;89.70
75008;BME280;63554;48.940;12.050;2022-11-04T00:41:08;96296.03;;;8.65;89.79
75008;BME280;63554;48.940;12.050;2022-11-04T00:43:24;96284.41;;;8.64;89.63
75008;BME280;63554;48.940;12.050;2022-11-04T00:45:27;96283.84;;;8.62;89.66
75008;BME280;63554;48.940;12.050;2022-11-04T00:47:31;96300.84;;;8.63;89.67
75008;BME280;63554;48.940;12.050;2022-11-04T00:49:34;96303.78;;;8.61;89.59
75008;BME280;63554;48.940;12.050;2022-11-04T00:51:36;96305.06;;;8.59;89.87
75008;BME280;63554;48.940;12.050;2022-11-04T00:53:39;96307.28;;;8.62;89.96
75008;BME280;63554;48.940;12.050;2022-11-04T00:55:42;96310.34;;;8.65;89.64
75008;BME280;63554;48.940;12.050;2022-11-04T00:57:45;96307.41;;;8.67;89.66
75008;BME280;63554;48.940;12.050;2022-11-04T00:59:47;96316.47;;;8.73;89.51
75008;BME280;63554;48.940;12.050;2022-11-04T01:01:50;96320.19;;;8.71;89.54
75008;BME280;63554;48.940;12.050;2022-11-04T01:03:55;96325.59;;;8.71;89.50
75008;BME280;63554;48.940;12.050;2022-11-04T01:05:57;96332.38;;;8.74;89.38
75008;BME280;63554;48.940;12.050;2022-11-04T01:08:00;96326.53;;;8.77;89.65
75008;BME280;63554;48.940;12.050;2022-11-04T01:10:04;96327.84;;;8.75;89.51
75008;BME280;63554;48.940;12.050;2022-11-04T01:12:07;96341.09;;;8.76;89.41
75008;BME280;63554;48.940;12.050;2022-11-04T01:14:09;96346.59;;;8.81;89.55
75008;BME280;63554;48.940;12.050;2022-11-04T01:16:12;96356.56;;;8.81;89.88
75008;BME280;63554;48.940;12.050;2022-11-04T01:18:15;96353.97;;;8.86;89.85
75008;BME280;63554;48.940;12.050;2022-11-04T01:20:19;96356.44;;;8.87;89.51
75008;BME280;63554;48.940;12.050;2022-11-04T01:22:22;96354.09;;;8.91;89.56
75008;BME280;63554;48.940;12.050;2022-11-04T01:24:25;96365.50;;;8.93;89.87
75008;BME280;63554;48.940;12.050;2022-11-04T01:26:28;96355.78;;;8.92;89.62
75008;BME280;63554;48.940;12.050;2022-11-04T01:28:31;96360.91;;;8.94;89.72
75008;BME280;63554;48.940;12.050;2022-11-04T01:30:36;96367.97;;;8.95;89.94
75008;BME280;63554;48.940;12.050;2022-11-04T01:32:39;96363.03;;;8.91;89.85
75008;BME280;63554;48.940;12.050;2022-11-04T01:34:42;96363.28;;;8.90;89.82
75008;BME280;63554;48.940;12.050;2022-11-04T01:36:46;96367.81;;;8.89;90.12
75008;BME280;63554;48.940;12.050;2022-11-04T01:38:49;96374.28;;;8.88;90.28
75008;BME280;63554;48.940;12.050;2022-11-04T01:40:51;96377.22;;;8.87;90.27
75008;BME280;63554;48.940;12.050;2022-11-04T01:42:54;96374.75;;;8.85;90.05
75008;BME280;63554;48.940;12.050;2022-11-04T01:44:58;96372.28;;;8.84;90.46
75008;BME280;63554;48.940;12.050;2022-11-04T01:47:01;96375.69;;;8.79;90.64
75008;BME280;63554;48.940;12.050;2022-11-04T01:49:17;96395.06;;;8.76;90.71
75008;BME280;63554;48.940;12.050;2022-11-04T01:51:23;96385.75;;;8.72;90.83
75008;BME280;63554;48.940;12.050;2022-11-04T01:53:31;96396.19;;;8.68;90.85
75008;BME280;63554;48.940;12.050;2022-11-04T01:55:39;96402.84;;;8.66;91.12
75008;BME280;63554;48.940;12.050;2022-11-04T01:57:46;96405.78;;;8.64;91.22
75008;BME280;63554;48.940;12.050;2022-11-04T01:59:50;96407.78;;;8.57;91.13
75008;BME280;63554;48.940;12.050;2022-11-04T02:01:52;96404.94;;;8.52;91.19
75008;BME280;63554;48.940;12.050;2022-11-04T02:03:57;96406.94;;;8.45;90.98
75008;BME280;63554;48.940;12.050;2022-11-04T02:06:21;96402.34;;;8.45;91.39
75008;BME280;63554;48.940;12.050;2022-11-04T02:08:24;96395.16;;;8.39;91.13
75008;BME280;63554;48.940;12.050;2022-11-04T02:10:30;96396.38;;;8.43;91.32
75008;BME280;63554;48.940;12.050;2022-11-04T02:12:33;96411.72;;;8.43;91.35
75008;BME280;63554;48.940;12.050;2022-11-04T02:14:53;96404.88;;;8.40;91.46
75008;BME280;63554;48.940;12.050;2022-11-04T02:17:02;96403.88;;;8.41;91.46
75008;BME280;63554;48.940;12.050;2022-11-04T02:19:21;96410.97;;;8.36;91.77
75008;BME280;63554;48.940;12.050;2022-11-04T02:21:45;96409.56;;;8.33;91.80
75008;BME280;63554;48.940;12.050;2022-11-04T02:24:13;96418.22;;;8.35;91.39
75008;BME280;63554;48.940;12.050;2022-11-04T02:29:34;96417.00;;;8.31;92.08
75008;BME280;63554;48.940;12.050;2022-11-04T02:31:49;96417.28;;;8.29;91.91
75008;BME280;63554;48.940;12.050;2022-11-04T02:34:00;96421.75;;;8.36;92.08
75008;BME280;63554;48.940;12.050;2022-11-04T02:36:09;96418.81;;;8.37;92.01
75008;BME280;63554;48.940;12.050;2022-11-04T02:38:23;96412.47;;;8.31;92.17
75008;BME280;63554;48.940;12.050;2022-11-04T02:40:38;96424.06;;;8.32;92.22
75008;BME280;63554;48.940;12.050;2022-11-04T02:42:49;96431.34;;;8.31;92.10
75008;BME280;63554;48.940;12.050;2022-11-04T02:45:09;96439.44;;;8.31;92.30
75008;BME280;63554;48.940;12.050;2022-11-04T02:47:15;96432.84;;;8.27;92.45
75008;BME280;63554;48.940;12.050;2022-11-04T02:49:25;96424.75;;;8.27;92.51
75008;BME280;63554;48.940;12.050;2022-11-04T02:51:32;96433.06;;;8.26;92.00
75008;BME280;63554;48.940;12.050;2022-11-04T02:53:40;96429.09;;;8.28;92.65
75008;BME280;63554;48.940;12.050;2022-11-04T02:55:48;96433.44;;;8.29;92.23
75008;BME280;63554;48.940;12.050;2022-11-04T02:57:55;96424.16;;;8.25;91.99
75008;BME280;63554;48.940;12.050;2022-11-04T03:00:01;96431.19;;;8.26;92.26
75008;BME280;63554;48.940;12.050;2022-11-04T03:02:07;96432.38;;;8.30;92.23
75008;BME280;63554;48.940;12.050;2022-11-04T03:04:15;96428.28;;;8.28;92.13
75008;BME280;63554;48.940;12.050;2022-11-04T03:06:21;96425.09;;;8.31;92.37
75008;BME280;63554;48.940;12.050;2022-11-04T03:08:29;96423.69;;;8.28;91.96
75008;BME280;63554;48.940;12.050;2022-11-04T03:10:34;96426.97;;;8.30;91.99
75008;BME280;63554;48.940;12.050;2022-11-04T03:12:47;96428.28;;;8.28;92.04
75008;BME280;63554;48.940;12.050;2022-11-04T03:14:53;96423.56;;;8.23;92.15
75008;BME280;63554;48.940;12.050;2022-11-04T03:17:02;96440.69;;;8.29;92.00
75008;BME280;63554;48.940;12.050;2022-11-04T03:19:12;96441.97;;;8.26;91.89
75008;BME280;63554;48.940;12.050;2022-11-04T03:21:18;96443.63;;;8.27;92.29
75008;BME280;63554;48.940;12.050;2022-11-04T03:23:22;96440.94;;;8.27;92.13
75008;BME280;63554;48.940;12.050;2022-11-04T03:25:26;96447.94;;;8.28;92.03
75008;BME280;63554;48.940;12.050;2022-11-04T03:27:34;96444.66;;;8.26;92.21
75008;BME280;63554;48.940;12.050;2022-11-04T03:29:47;96443.03;;;8.25;92.25
75008;BME280;63554;48.940;12.050;2022-11-04T03:32:03;96439.50;;;8.25;92.33
75008;BME280;63554;48.940;12.050;2022-11-04T03:34:10;96436.94;;;8.30;92.25
75008;BME280;63554;48.940;12.050;2022-11-04T03:36:13;96441.53;;;8.29;92.30
75008;BME280;63554;48.940;12.050;2022-11-04T03:38:15;96438.59;;;8.31;92.08
75008;BME280;63554;48.940;12.050;2022-11-04T03:40:19;96440.69;;;8.29;92.09
75008;BME280;63554;48.940;12.050;2022-11-04T03:42:23;96449.16;;;8.32;92.06
75008;BME280;63554;48.940;12.050;2022-11-04T03:44:28;96443.75;;;8.32;92.19
75008;BME280;63554;48.940;12.050;2022-11-04T03:46:31;96441.91;;;8.33;91.95
75008;BME280;63554;48.940;12.050;2022-11-04T03:48:35;96439.66;;;8.30;92.11
75008;BME280;63554;48.940;12.050;2022-11-04T03:50:40;96450.00;;;8.33;92.10
75008;BME280;63554;48.940;12.050;2022-11-04T03:52:44;96446.66;;;8.31;92.08
75008;BME280;63554;48.940;12.050;2022-11-04T03:54:47;96452.22;;;8.36;92.15
75008;BME280;63554;48.940;12.050;2022-11-04T03:57:11;96454.91;;;8.36;92.26
75008;BME280;63554;48.940;12.050;2022-11-04T03:59:30;96452.81;;;8.38;92.11
75008;BME280;63554;48.940;12.050;2022-11-04T04:01:44;96450.81;;;8.34;92.01
75008;BME280;63554;48.940;12.050;2022-11-04T04:03:55;96459.25;;;8.37;91.60
75008;BME280;63554;48.940;12.050;2022-11-04T04:06:06;96457.81;;;8.35;91.97
75008;BME280;63554;48.940;12.050;2022-11-04T04:08:19;96458.41;;;8.37;92.00
75008;BME280;63554;48.940;12.050;2022-11-04T04:10:28;96464.41;;;8.39;91.91
75008;BME280;63554;48.940;12.050;2022-11-04T04:12:40;96455.91;;;8.42;91.65
75008;BME280;63554;48.940;12.050;2022-11-04T04:14:47;96461.66;;;8.45;91.83
75008;BME280;63554;48.940;12.050;2022-11-04T04:16:53;96457.56;;;8.43;91.63
75008;BME280;63554;48.940;12.050;2022-11-04T04:19:02;96448.47;;;8.37;91.36
75008;BME280;63554;48.940;12.050;2022-11-04T04:21:08;96461.38;;;8.35;91.67
75008;BME280;63554;48.940;12.050;2022-11-04T04:23:15;96455.72;;;8.37;91.76
75008;BME280;63554;48.940;12.050;2022-11-04T04:25:37;96468.75;;;8.40;91.81
75008;BME280;63554;48.940;12.050;2022-11-04T04:27:57;96460.88;;;8.38;92.35
75008;BME280;63554;48.940;12.050;2022-11-04T04:30:04;96458.59;;;9.38;94.62
75008;BME280;63554;48.940;12.050;2022-11-04T04:32:08;96459.97;;;9.76;94.96
75008;BME280;63554;48.940;12.050;2022-11-04T04:34:13;96458.44;;;9.92;95.11
75008;BME280;63554;48.940;12.050;2022-11-04T04:36:16;96459.13;;;9.99;94.90
75008;BME280;63554;48.940;12.050;2022-11-04T04:38:21;96439.66;;;9.85;94.27
75008;BME280;63554;48.940;12.050;2022-11-04T04:40:43;96429.47;;;9.63;92.77
75008;BME280;63554;48.940;12.050;2022-11-04T04:43:08;96434.28;;;9.49;92.27
75008;BME280;63554;48.940;12.050;2022-11-04T04:45:35;96440.72;;;9.72;93.01
75008;BME280;63554;48.940;12.050;2022-11-04T04:47:42;96430.72;;;9.84;92.72
75008;BME280;63554;48.940;12.050;2022-11-04T04:49:50;96423.75;;;10.00;92.21
75008;BME280;63554;48.940;12.050;2022-11-04T04:51:53;96415.72;;;10.05;90.67
75008;BME280;63554;48.940;12.050;2022-11-04T04:53:56;96408.16;;;9.90;90.76
75008;BME280;63554;48.940;12.050;2022-11-04T04:55:58;96414.28;;;9.86;89.51
75008;BME280;63554;48.940;12.050;2022-11-04T04:58:01;96415.22;;;9.80;88.19
75008;BME280;63554;48.940;12.050;2022-11-04T05:00:06;96407.97;;;9.57;87.38
75008;BME280;63554;48.940;12.050;2022-11-04T05:02:10;96404.00;;;9.36;87.73
75008;BME280;63554;48.940;12.050;2022-11-04T05:04:13;96410.34;;;9.18;88.37
75008;BME280;63554;48.940;12.050;2022-11-04T05:06:17;96411.00;;;9.01;89.22
75008;BME280;63554;48.940;12.050;2022-11-04T05:08:19;96417.81;;;8.92;89.44
75008;BME280;63554;48.940;12.050;2022-11-04T05:10:22;96427.06;;;8.84;89.81
75008;BME280;63554;48.940;12.050;2022-11-04T05:12:25;96422.34;;;8.80;90.15
75008;BME280;63554;48.940;12.050;2022-11-04T05:14:48;96413.66;;;8.66;90.37
75008;BME280;63554;48.940;12.050;2022-11-04T05:16:51;96408.00;;;8.56;90.98
75008;BME280;63554;48.940;12.050;2022-11-04T05:18:54;96396.72;;;8.47;91.45
75008;BME280;63554;48.940;12.050;2022-11-04T05:20:56;96393.66;;;8.43;91.42
75008;BME280;63554;48.940;12.050;2022-11-04T05:23:00;96384.38;;;8.39;91.74
75008;BME280;63554;48.940;12.050;2022-11-04T05:25:04;96380.50;;;8.35;92.05
75008;BME280;63554;48.940;12.050;2022-11-04T05:27:07;96383.03;;;8.30;92.20
75008;BME280;63554;48.940;12.050;2022-11-04T05:29:09;96385.16;;;8.28;92.29
75008;BME280;63554;48.940;12.050;2022-11-04T05:31:13;96378.56;;;8.24;92.38
75008;BME280;63554;48.940;12.050;2022-11-04T05:33:15;96393.09;;;8.23;92.63
75008;BME280;63554;48.940;12.050;2022-11-04T05:35:18;96409.25;;;8.23;92.69
75008;BME280;63554;48.940;12.050;2022-11-04T05:37:21;96421.69;;;8.24;92.82
75008;BME280;63554;48.940;12.050;2022-11-04T05:39:25;96440.34;;;8.25;92.85
75008;BME280;63554;48.940;12.050;2022-11-04T05:41:27;96434.94;;;8.25;92.85
75008;BME280;63554;48.940;12.050;2022-11-04T05:43:30;96431.06;;;8.21;92.84
75008;BME280;63554;48.940;12.050;2022-11-04T05:45:33;96432.47;;;8.24;92.96
75008;BME280;63554;48.940;12.050;2022-11-04T05:47:36;96420.63;;;8.25;92.91
75008;BME280;63554;48.940;12.050;2022-11-04T05:49:39;96423.91;;;8.27;93.04
75008;BME280;63554;48.940;12.050;2022-11-04T05:51:42;96430.75;;;8.29;92.99
75008;BME280;63554;48.940;12.050;2022-11-04T05:53:45;96441.06;;;8.32;92.81
75008;BME280;63554;48.940;12.050;2022-11-04T05:55:49;96451.84;;;8.32;92.68
75008;BME280;63554;48.940;12.050;2022-11-04T05:57:52;96460.53;;;8.35;92.52
75008;BME280;63554;48.940;12.050;2022-11-04T05:59:55;96455.97;;;8.35;92.30
75008;BME280;63554;48.940;12.050;2022-11-04T06:01:57;96454.47;;;8.39;92.66
75008;BME280;63554;48.940;12.050;2022-11-04T06:04:02;96463.38;;;8.40;92.54
75008;BME280;63554;48.940;12.050;2022-11-04T06:06:05;96457.78;;;8.41;92.66
75008;BME280;63554;48.940;12.050;2022-11-04T06:08:08;96452.59;;;8.40;92.30
75008;BME280;63554;48.940;12.050;2022-11-04T06:10:11;96453.41;;;8.40;92.42
75008;BME280;63554;48.940;12.050;2022-11-04T06:12:15;96455.09;;;8.41;92.31
75008;BME280;63554;48.940;12.050;2022-11-04T06:14:18;96449.88;;;8.40;92.53
75008;BME280;63554;48.940;12.050;2022-11-04T06:16:21;96454.88;;;8.43;92.55
75008;BME280;63554;48.940;12.050;2022-11-04T06:18:24;96447.41;;;8.38;92.58
75008;BME280;63554;48.940;12.050;2022-11-04T06:20:27;96451.78;;;8.39;92.55
75008;BME280;63554;48.940;12.050;2022-11-04T06:22:29;96464.19;;;8.40;92.75
75008;BME280;63554;48.940;12.050;2022-11-04T06:24:32;96459.00;;;8.39;92.60
75008;BME280;63554;48.940;12.050;2022-11-04T06:26:35;96466.28;;;8.38;92.55
75008;BME280;63554;48.940;12.050;2022-11-04T06:28:41;96484.13;;;8.39;92.38
75008;BME280;63554;48.940;12.050;2022-11-04T06:30:44;96471.69;;;8.38;92.69
75008;BME280;63554;48.940;12.050;2022-11-04T06:32:46;96470.03;;;8.37;92.33
75008;BME280;63554;48.940;12.050;2022-11-04T06:34:49;96463.00;;;8.36;92.47
75008;BME280;63554;48.940;12.050;2022-11-04T06:36:52;96450.59;;;8.35;92.24
75008;BME280;63554;48.940;12.050;2022-11-04T06:38:55;96470.78;;;8.44;92.46
75008;BME280;63554;48.940;12.050;2022-11-04T06:41:05;96472.06;;;8.42;92.08
75008;BME280;63554;48.940;12.050;2022-11-04T06:43:08;96469.97;;;8.44;91.78
75008;BME280;63554;48.940;12.050;2022-11-04T06:45:13;96476.78;;;8.46;91.95
75008;BME280;63554;48.940;12.050;2022-11-04T06:47:16;96480.06;;;8.48;91.91
75008;BME280;63554;48.940;12.050;2022-11-04T06:49:25;96474.56;;;8.43;91.46
75008;BME280;63554;48.940;12.050;2022-11-04T06:51:27;96467.50;;;8.42;91.06
75008;BME280;63554;48.940;12.050;2022-11-04T06:53:31;96464.66;;;8.37;90.95
75008;BME280;63554;48.940;12.050;2022-11-04T06:55:34;96473.97;;;8.41;91.13
75008;BME280;63554;48.940;12.050;2022-11-04T06:57:36;96477.47;;;8.42;91.10
75008;BME280;63554;48.940;12.050;2022-11-04T06:59:39;96474.56;;;8.43;90.99
75008;BME280;63554;48.940;12.050;2022-11-04T07:01:43;96469.16;;;8.43;91.08
75008;BME280;63554;48.940;12.050;2022-11-04T07:03:48;96473.84;;;8.48;91.66
75008;BME280;63554;48.940;12.050;2022-11-04T07:05:50;96472.22;;;8.47;91.57
75008;BME280;63554;48.940;12.050;2022-11-04T07:07:53;96473.75;;;8.43;90.88
75008;BME280;63554;48.940;12.050;2022-11-04T07:09:57;96471.44;;;8.40;91.09
75008;BME280;63554;48.940;12.050;2022-11-04T07:11:59;96468.97;;;8.38;91.07
75008;BME280;63554;48.940;12.050;2022-11-04T07:14:02;96467.78;;;8.34;91.45
75008;BME280;63554;48.940;12.050;2022-11-04T07:16:06;96466.38;;;8.31;91.51
75008;BME280;63554;48.940;12.050;2022-11-04T07:18:10;96474.25;;;8.33;91.10
75008;BME280;63554;48.940;12.050;2022-11-04T07:20:13;96474.69;;;8.30;91.19
75008;BME280;63554;48.940;12.050;2022-11-04T07:22:16;96464.06;;;8.35;91.30
75008;BME280;63554;48.940;12.050;2022-11-04T07:24:19;96461.47;;;8.40;91.78
75008;BME280;63554;48.940;12.050;2022-11-04T07:26:21;96455.91;;;8.42;91.81
75008;BME280;63554;48.940;12.050;2022-11-04T07:28:24;96438.28;;;8.39;91.31
75008;BME280;63554;48.940;12.050;2022-11-04T07:30:27;96434.16;;;8.37;90.67
75008;BME280;63554;48.940;12.050;2022-11-04T07:32:29;96418.81;;;8.37;90.79
75008;BME280;63554;48.940;12.050;2022-11-04T07:34:33;96423.63;;;8.35;90.22
75008;BME280;63554;48.940;12.050;2022-11-04T07:36:36;96429.09;;;8.28;89.84
75008;BME280;63554;48.940;12.050;2022-11-04T07:38:39;96428.28;;;8.28;89.65
75008;BME280;63554;48.940;12.050;2022-11-04T07:40:41;96446.06;;;8.29;90.31
75008;BME280;63554;48.940;12.050;2022-11-04T07:42:44;96450.44;;;8.30;90.60
75008;BME280;63554;48.940;12.050;2022-11-04T07:44:47;96458.88;;;8.34;90.98
75008;BME280;63554;48.940;12.050;2022-11-04T07:46:50;96460.88;;;8.38;90.84
75008;BME280;63554;48.940;12.050;2022-11-04T07:48:55;96463.59;;;8.38;90.40
75008;BME280;63554;48.940;12.050;2022-11-04T07:51:00;96455.38;;;8.33;90.52
75008;BME280;63554;48.940;12.050;2022-11-04T07:53:04;96455.66;;;8.25;90.41
75008;BME280;63554;48.940;12.050;2022-11-04T07:55:08;96466.31;;;8.20;90.69
75008;BME280;63554;48.940;12.050;2022-11-04T07:57:11;96464.66;;;8.19;91.15
75008;BME280;63554;48.940;12.050;2022-11-04T07:59:14;96473.94;;;8.23;91.23
75008;BME280;63554;48.940;12.050;2022-11-04T08:01:19;96473.94;;;8.23;91.19
75008;BME280;63554;48.940;12.050;2022-11-04T08:03:23;96479.94;;;8.25;91.29
75008;BME280;63554;48.940;12.050;2022-11-04T08:05:26;96486.81;;;8.21;91.11
75008;BME280;63554;48.940;12.050;2022-11-04T08:07:30;96492.44;;;8.19;91.04
75008;BME280;63554;48.940;12.050;2022-11-04T08:09:33;96504.88;;;8.20;91.07
75008;BME280;63554;48.940;12.050;2022-11-04T08:11:36;96504.06;;;8.20;91.27
75008;BME280;63554;48.940;12.050;2022-11-04T08:13:40;96512.19;;;8.13;90.79
75008;BME280;63554;48.940;12.050;2022-11-04T08:15:43;96524.66;;;8.14;90.95
75008;BME280;63554;48.940;12.050;2022-11-04T08:17:45;96529.22;;;8.14;90.46
75008;BME280;63554;48.940;12.050;2022-11-04T08:19:48;96529.28;;;8.07;90.30
75008;BME280;63554;48.940;12.050;2022-11-04T08:21:51;96533.84;;;8.06;90.64
75008;BME280;63554;48.940;12.050;2022-11-04T08:23:55;96535.34;;;8.02;89.54
75008;BME280;63554;48.940;12.050;2022-11-04T08:25:58;96526.19;;;8.03;89.86
75008;BME280;63554;48.940;12.050;2022-11-04T08:28:01;96524.56;;;8.02;89.81
75008;BME280;63554;48.940;12.050;2022-11-04T08:30:05;96518.13;;;8.03;90.12
75008;BME280;63554;48.940;12.050;2022-11-04T08:32:07;96531.00;;;8.01;90.01
75008;BME280;63554;48.940;12.050;2022-11-04T08:34:10;96520.91;;;7.97;88.75
75008;BME280;63554;48.940;12.050;2022-11-04T08:36:17;96522.78;;;7.96;88.51
75008;BME280;63554;48.940;12.050;2022-11-04T08:38:20;96510.94;;;7.97;88.98
75008;BME280;63554;48.940;12.050;2022-11-04T08:40:24;96515.28;;;7.98;88.41
75008;BME280;63554;48.940;12.050;2022-11-04T08:42:27;96521.28;;;8.00;88.67
75008;BME280;63554;48.940;12.050;2022-11-04T08:44:30;96513.78;;;8.02;88.53
75008;BME280;63554;48.940;12.050;2022-11-04T08:46:36;96509.59;;;8.06;87.82
75008;BME280;63554;48.940;12.050;2022-11-04T08:48:42;96511.69;;;8.04;87.60
75008;BME280;63554;48.940;12.050;2022-11-04T08:50:48;96512.50;;;8.05;87.69
75008;BME280;63554;48.940;12.050;2022-11-04T08:52:50;96506.44;;;8.09;87.97
75008;BME280;63554;48.940;12.050;2022-11-04T08:54:53;96506.97;;;8.18;88.47
75008;BME280;63554;48.940;12.050;2022-11-04T08:56:59;96496.19;;;8.18;88.20
75008;BME280;63554;48.940;12.050;2022-11-04T08:59:02;96492.38;;;8.26;88.44
75008;BME280;63554;48.940;12.050;2022-11-04T09:01:06;96490.88;;;8.30;88.50
75008;BME280;63554;48.940;12.050;2022-11-04T09:03:08;96480.47;;;8.34;87.75
75008;BME280;63554;48.940;12.050;2022-11-04T09:05:13;96479.16;;;8.36;87.04
75008;BME280;63554;48.940;12.050;2022-11-04T09:07:16;96475.38;;;8.44;87.76
75008;BME280;63554;48.940;12.050;2022-11-04T09:09:19;96470.63;;;8.39;87.30
75008;BME280;63554;48.940;12.050;2022-11-04T09:11:22;96469.56;;;8.40;87.00
75008;BME280;63554;48.940;12.050;2022-11-04T09:13:26;96484.56;;;8.36;85.57
75008;BME280;63554;48.940;12.050;2022-11-04T09:15:29;96493.34;;;8.31;86.06
75008;BME280;63554;48.940;12.050;2022-11-04T09:17:32;96489.13;;;8.36;86.45
75008;BME280;63554;48.940;12.050;2022-11-04T09:19:35;96479.75;;;8.38;85.79
75008;BME280;63554;48.940;12.050;2022-11-04T09:21:37;96483.06;;;8.40;85.07
75008;BME280;63554;48.940;12.050;2022-11-04T09:23:40;96485.16;;;8.38;85.50
75008;BME280;63554;48.940;12.050;2022-11-04T09:25:43;96478.81;;;8.51;85.93
75008;BME280;63554;48.940;12.050;2022-11-04T09:27:45;96475.53;;;8.49;85.48
75008;BME280;63554;48.940;12.050;2022-11-04T09:29:49;96472.50;;;8.57;85.31
75008;BME280;63554;48.940;12.050;2022-11-04T09:31:52;96473.53;;;8.56;84.33
75008;BME280;63554;48.940;12.050;2022-11-04T09:33:55;96478.47;;;8.59;82.99
75008;BME280;63554;48.940;12.050;2022-11-04T09:35:58;96468.88;;;8.63;84.42
75008;BME280;63554;48.940;12.050;2022-11-04T09:38:01;96471.72;;;8.68;84.28
75008;BME280;63554;48.940;12.050;2022-11-04T09:40:05;96472.41;;;8.64;83.89
75008;BME280;63554;48.940;12.050;2022-11-04T09:42:24;96473.72;;;8.73;84.85
75008;BME280;63554;48.940;12.050;2022-11-04T09:44:38;96463.25;;;8.65;83.27
75008;BME280;63554;48.940;12.050;2022-11-04T09:47:07;96463.63;;;8.68;84.67
75008;BME280;63554;48.940;12.050;2022-11-04T09:49:12;96462.50;;;8.76;83.79
75008;BME280;63554;48.940;12.050;2022-11-04T09:51:19;96453.06;;;8.67;82.99
75008;BME280;63554;48.940;12.050;2022-11-04T09:53:45;96453.50;;;8.64;83.02
75008;BME280;63554;48.940;12.050;2022-11-04T09:55:53;96456.09;;;8.59;83.88
75008;BME280;63554;48.940;12.050;2022-11-04T09:57:57;96447.09;;;8.65;84.69
75008;BME280;63554;48.940;12.050;2022-11-04T10:00:00;96449.19;;;8.63;82.89
75008;BME280;63554;48.940;12.050;2022-11-04T10:02:26;96450.09;;;8.57;82.58
75008;BME280;63554;48.940;12.050;2022-11-04T10:04:42;96445.75;;;8.56;83.43
75008;BME280;63554;48.940;12.050;2022-11-04T10:07:08;96439.19;;;8.51;84.06
75008;BME280;63554;48.940;12.050;2022-11-04T10:09:20;96442.69;;;8.52;84.06
75008;BME280;63554;48.940;12.050;2022-11-04T10:11:34;96437.28;;;8.52;84.40
75008;BME280;63554;48.940;12.050;2022-11-04T10:13:52;96425.91;;;8.50;83.22
75008;BME280;63554;48.940;12.050;2022-11-04T10:16:07;96419.94;;;8.48;84.04
75008;BME280;63554;48.940;12.050;2022-11-04T10:18:25;96426.06;;;8.55;84.88
75008;BME280;63554;48.940;12.050;2022-11-04T10:20:44;96437.44;;;8.57;84.16
75008;BME280;63554;48.940;12.050;2022-11-04T10:22:55;96441.19;;;8.56;84.25
75008;BME280;63554;48.940;12.050;2022-11-04T10:25:07;96453.84;;;8.56;84.39
75008;BME280;63554;48.940;12.050;2022-11-04T10:27:15;96454.44;;;8.58;84.37
75008;BME280;63554;48.940;12.050;2022-11-04T10:29:24;96461.00;;;8.62;84.56
75008;BME280;63554;48.940;12.050;2022-11-04T10:31:29;96462.66;;;8.63;83.36
75008;BME280;63554;48.940;12.050;2022-11-04T10:33:34;96464.53;;;8.62;83.36
75008;BME280;63554;48.940;12.050;2022-11-04T10:35:44;96461.59;;;8.64;83.03
75008;BME280;63554;48.940;12.050;2022-11-04T10:37:51;96460.69;;;8.70;83.51
75008;BME280;63554;48.940;12.050;2022-11-04T10:40:00;96458.72;;;8.77;83.05
75008;BME280;63554;48.940;12.050;2022-11-04T10:42:09;96454.06;;;8.84;83.49
75008;BME280;63554;48.940;12.050;2022-11-04T10:44:19;96443.72;;;8.81;81.76
75008;BME280;63554;48.940;12.050;2022-11-04T10:46:39;96435.28;;;8.89;82.77
75008;BME280;63554;48.940;12.050;2022-11-04T10:48:50;96451.84;;;8.93;81.61
75008;BME280;63554;48.940;12.050;2022-11-04T10:50:57;96440.69;;;8.89;82.06
75008;BME280;63554;48.940;12.050;2022-11-04T10:53:08;96449.59;;;8.78;80.68
75008;BME280;63554;48.940;12.050;2022-11-04T10:55:24;96441.13;;;8.75;81.45
75008;BME280;63554;48.940;12.050;2022-11-04T10:57:29;96449.09;;;8.81;81.37
75008;BME280;63554;48.940;12.050;2022-11-04T10:59:41;96442.69;;;8.82;81.41
75008;BME280;63554;48.940;12.050;2022-11-04T11:01:50;96433.25;;;8.73;81.33
75008;BME280;63554;48.940;12.050;2022-11-04T11:03:57;96427.06;;;8.73;81.89
75008;BME280;63554;48.940;12.050;2022-11-04T11:06:14;96430.72;;;8.78;82.19
75008;BME280;63554;48.940;12.050;2022-11-04T11:08:27;96426.94;;;8.79;81.42
75008;BME280;63554;48.940;12.050;2022-11-04T11:10:32;96434.81;;;8.81;81.42
75008;BME280;63554;48.940;12.050;2022-11-04T11:12:35;96428.00;;;8.78;81.76
75008;BME280;63554;48.940;12.050;2022-11-04T11:14:52;96420.25;;;8.82;81.71